sensor_id;sensor_type;location;lat;lon;timestamp;P1;durP1;ratioP1;P2;durP2;ratioP2
1703;SDS011;849;48.780;9.216;2022-11-20T00:02:15;34.27;;;0.80;;
1703;SDS011;849;48.780;9.216;2022-11-20T00:04:41;34.23;;;0.90;;
1703;SDS011;849;48.780;9.216;2022-11-20T00:07:07;34.43;;;0.83;;
1703;SDS011;849;48.780;9.216;2022-11-20T00:09:32;34.27;;;0.80;;
1703;SDS011;849;48.780;9.216;2022-11-20T00:11:58;34.27;;;0.90;;
1703;SDS011;849;48.780;9.216;2022-11-20T00:14:24;34.77;;;1.83;;
1703;SDS011;849;48.780;9.216;2022-11-20T00:16:49;34.43;;;0.80;;
1703;SDS011;849;48.780;9.216;2022-11-20T00:19:15;34.17;;;0.80;;
1703;SDS011;849;48.780;9.216;2022-11-20T00:21:40;34.37;;;0.80;;
1703;SDS011;849;48.780;9.216;2022-11-20T00:24:08;34.37;;;1.10;;
1703;SDS011;849;48.780;9.216;2022-11-20T00:26:35;34.40;;;0.80;;
1703;SDS011;849;48.780;9.216;2022-11-20T00:29:00;34.23;;;0.80;;
1703;SDS011;849;48.780;9.216;2022-11-20T00:31:27;34.43;;;0.80;;
1703;SDS011;849;48.780;9.216;2022-11-20T00:33:54;34.23;;;0.80;;
1703;SDS011;849;48.780;9.216;2022-11-20T00:36:20;34.17;;;0.83;;
1703;SDS011;849;48.780;9.216;2022-11-20T00:38:51;34.27;;;0.80;;
1703;SDS011;849;48.780;9.216;2022-11-20T00:41:17;34.50;;;1.83;;
1703;SDS011;849;48.780;9.216;2022-11-20T00:43:43;34.37;;;0.90;;
1703;SDS011;849;48.780;9.216;2022-11-20T00:46:09;34.27;;;0.90;;
1703;SDS011;849;48.780;9.216;2022-11-20T00:48:40;34.23;;;0.90;;
1703;SDS011;849;48.780;9.216;2022-11-20T00:51:06;34.07;;;0.80;;
1703;SDS011;849;48.780;9.216;2022-11-20T00:53:32;34.27;;;0.80;;
1703;SDS011;849;48.780;9.216;2022-11-20T00:56:04;34.23;;;0.80;;
1703;SDS011;849;48.780;9.216;2022-11-20T00:58:33;34.27;;;0.80;;
1703;SDS011;849;48.780;9.216;2022-11-20T01:03:31;33.97;;;0.80;;
1703;SDS011;849;48.780;9.216;2022-11-20T01:06:01;34.17;;;0.80;;
1703;SDS011;849;48.780;9.216;2022-11-20T01:08:31;34.23;;;0.90;;
1703;SDS011;849;48.780;9.216;2022-11-20T01:10:58;34.27;;;0.90;;
1703;SDS011;849;48.780;9.216;2022-11-20T01:13:26;34.33;;;0.80;;
1703;SDS011;849;48.780;9.216;2022-11-20T01:18:34;34.30;;;1.10;;
1703;SDS011;849;48.780;9.216;2022-11-20T01:21:02;33.97;;;0.80;;
1703;SDS011;849;48.780;9.216;2022-11-20T01:23:32;34.03;;;0.80;;
1703;SDS011;849;48.780;9.216;2022-11-20T01:26:03;33.97;;;0.80;;
1703;SDS011;849;48.780;9.216;2022-11-20T01:28:30;34.03;;;0.80;;
1703;SDS011;849;48.780;9.216;2022-11-20T01:30:56;34.03;;;0.90;;
1703;SDS011;849;48.780;9.216;2022-11-20T01:33:21;34.03;;;0.80;;
1703;SDS011;849;48.780;9.216;2022-11-20T01:35:47;33.93;;;0.80;;
1703;SDS011;849;48.780;9.216;2022-11-20T01:38:14;34.03;;;0.80;;
1703;SDS011;849;48.780;9.216;2022-11-20T01:40:40;34.07;;;0.80;;
1703;SDS011;849;48.780;9.216;2022-11-20T01:43:12;34.03;;;0.80;;
1703;SDS011;849;48.780;9.216;2022-11-20T01:48:26;34.00;;;0.80;;
1703;SDS011;849;48.780;9.216;2022-11-20T01:50:59;34.13;;;0.80;;
1703;SDS011;849;48.780;9.216;2022-11-20T01:53:27;34.17;;;0.80;;
1703;SDS011;849;48.780;9.216;2022-11-20T01:55:57;34.07;;;0.80;;
1703;SDS011;849;48.780;9.216;2022-11-20T01:58:27;34.10;;;0.80;;
1703;SDS011;849;48.780;9.216;2022-11-20T02:00:57;34.07;;;0.90;;
1703;SDS011;849;48.780;9.216;2022-11-20T02:03:23;34.03;;;0.90;;
1703;SDS011;849;48.780;9.216;2022-11-20T02:06:02;33.77;;;0.80;;
1703;SDS011;849;48.780;9.216;2022-11-20T02:08:29;33.77;;;0.97;;
1703;SDS011;849;48.780;9.216;2022-11-20T02:10:56;33.90;;;0.80;;
1703;SDS011;849;48.780;9.216;2022-11-20T02:13:21;33.93;;;0.80;;
1703;SDS011;849;48.780;9.216;2022-11-20T02:16:08;33.83;;;0.80;;
1703;SDS011;849;48.780;9.216;2022-11-20T02:18:53;33.97;;;0.90;;
1703;SDS011;849;48.780;9.216;2022-11-20T02:26:28;33.87;;;0.80;;
1703;SDS011;849;48.780;9.216;2022-11-20T02:28:56;33.83;;;0.80;;
1703;SDS011;849;48.780;9.216;2022-11-20T02:31:23;33.83;;;0.80;;
1703;SDS011;849;48.780;9.216;2022-11-20T02:33:53;33.77;;;0.80;;
1703;SDS011;849;48.780;9.216;2022-11-20T02:36:20;33.77;;;0.80;;
1703;SDS011;849;48.780;9.216;2022-11-20T02:38:46;33.83;;;0.90;;
1703;SDS011;849;48.780;9.216;2022-11-20T02:41:13;33.83;;;0.80;;
1703;SDS011;849;48.780;9.216;2022-11-20T02:43:39;33.87;;;0.90;;
1703;SDS011;849;48.780;9.216;2022-11-20T02:46:06;33.97;;;0.90;;
1703;SDS011;849;48.780;9.216;2022-11-20T02:48:32;33.90;;;0.80;;
1703;SDS011;849;48.780;9.216;2022-11-20T02:50:58;33.87;;;0.80;;
1703;SDS011;849;48.780;9.216;2022-11-20T02:53:23;33.67;;;0.80;;
1703;SDS011;849;48.780;9.216;2022-11-20T02:55:49;33.80;;;0.80;;
1703;SDS011;849;48.780;9.216;2022-11-20T02:58:15;33.73;;;0.80;;
1703;SDS011;849;48.780;9.216;2022-11-20T03:00:41;33.77;;;0.90;;
1703;SDS011;849;48.780;9.216;2022-11-20T03:03:06;33.80;;;0.80;;
1703;SDS011;849;48.780;9.216;2022-11-20T03:05:32;36.40;;;4.30;;
1703;SDS011;849;48.780;9.216;2022-11-20T03:07:57;33.67;;;0.80;;
1703;SDS011;849;48.780;9.216;2022-11-20T03:10:23;33.73;;;0.80;;
1703;SDS011;849;48.780;9.216;2022-11-20T03:12:52;33.77;;;0.80;;
1703;SDS011;849;48.780;9.216;2022-11-20T03:15:19;34.03;;;0.80;;
1703;SDS011;849;48.780;9.216;2022-11-20T03:17:45;33.97;;;0.80;;
1703;SDS011;849;48.780;9.216;2022-11-20T03:20:10;33.97;;;0.80;;
1703;SDS011;849;48.780;9.216;2022-11-20T03:22:36;34.13;;;0.90;;
1703;SDS011;849;48.780;9.216;2022-11-20T03:25:02;33.93;;;0.80;;
1703;SDS011;849;48.780;9.216;2022-11-20T03:27:31;33.97;;;0.80;;
1703;SDS011;849;48.780;9.216;2022-11-20T03:29:58;34.00;;;0.70;;
1703;SDS011;849;48.780;9.216;2022-11-20T03:32:23;34.20;;;0.90;;
1703;SDS011;849;48.780;9.216;2022-11-20T03:34:49;34.13;;;0.80;;
1703;SDS011;849;48.780;9.216;2022-11-20T03:37:15;34.10;;;0.80;;
1703;SDS011;849;48.780;9.216;2022-11-20T03:39:40;34.07;;;0.80;;
1703;SDS011;849;48.780;9.216;2022-11-20T03:42:06;34.37;;;1.17;;
1703;SDS011;849;48.780;9.216;2022-11-20T03:44:51;34.20;;;0.80;;
1703;SDS011;849;48.780;9.216;2022-11-20T03:47:17;34.07;;;0.77;;
1703;SDS011;849;48.780;9.216;2022-11-20T03:49:43;34.23;;;0.80;;
1703;SDS011;849;48.780;9.216;2022-11-20T03:52:08;34.07;;;0.70;;
1703;SDS011;849;48.780;9.216;2022-11-20T03:54:34;34.50;;;1.30;;
1703;SDS011;849;48.780;9.216;2022-11-20T03:57:00;34.17;;;0.80;;
1703;SDS011;849;48.780;9.216;2022-11-20T03:59:27;34.43;;;1.00;;
1703;SDS011;849;48.780;9.216;2022-11-20T04:01:52;34.40;;;0.80;;
1703;SDS011;849;48.780;9.216;2022-11-20T04:04:18;35.00;;;1.00;;
1703;SDS011;849;48.780;9.216;2022-11-20T04:06:44;34.40;;;0.80;;
1703;SDS011;849;48.780;9.216;2022-11-20T04:09:09;34.27;;;0.80;;
1703;SDS011;849;48.780;9.216;2022-11-20T04:11:36;34.27;;;0.70;;
1703;SDS011;849;48.780;9.216;2022-11-20T04:14:04;34.67;;;1.87;;
1703;SDS011;849;48.780;9.216;2022-11-20T04:16:32;34.43;;;0.80;;
1703;SDS011;849;48.780;9.216;2022-11-20T04:19:00;34.33;;;0.80;;
1703;SDS011;849;48.780;9.216;2022-11-20T04:21:28;34.37;;;1.03;;
1703;SDS011;849;48.780;9.216;2022-11-20T04:23:54;34.30;;;0.73;;
1703;SDS011;849;48.780;9.216;2022-11-20T04:26:20;34.37;;;0.80;;
1703;SDS011;849;48.780;9.216;2022-11-20T04:28:48;34.27;;;0.73;;
1703;SDS011;849;48.780;9.216;2022-11-20T04:31:15;34.70;;;1.77;;
1703;SDS011;849;48.780;9.216;2022-11-20T04:33:42;34.40;;;0.70;;
1703;SDS011;849;48.780;9.216;2022-11-20T04:36:12;34.43;;;0.80;;
1703;SDS011;849;48.780;9.216;2022-11-20T04:38:40;34.47;;;0.80;;
1703;SDS011;849;48.780;9.216;2022-11-20T04:41:07;34.70;;;1.03;;
1703;SDS011;849;48.780;9.216;2022-11-20T04:43:36;34.57;;;0.80;;
1703;SDS011;849;48.780;9.216;2022-11-20T04:46:01;34.73;;;0.90;;
1703;SDS011;849;48.780;9.216;2022-11-20T04:48:28;34.77;;;1.10;;
1703;SDS011;849;48.780;9.216;2022-11-20T04:50:54;34.63;;;0.80;;
1703;SDS011;849;48.780;9.216;2022-11-20T04:53:20;34.67;;;0.80;;
1703;SDS011;849;48.780;9.216;2022-11-20T04:55:47;34.53;;;0.80;;
1703;SDS011;849;48.780;9.216;2022-11-20T04:58:13;34.53;;;0.80;;
1703;SDS011;849;48.780;9.216;2022-11-20T05:00:39;34.53;;;0.80;;
1703;SDS011;849;48.780;9.216;2022-11-20T05:03:05;34.63;;;0.77;;
1703;SDS011;849;48.780;9.216;2022-11-20T05:05:31;34.57;;;0.80;;
1703;SDS011;849;48.780;9.216;2022-11-20T05:07:59;34.50;;;0.90;;
1703;SDS011;849;48.780;9.216;2022-11-20T05:10:25;34.67;;;0.80;;
1703;SDS011;849;48.780;9.216;2022-11-20T05:12:51;34.60;;;0.80;;
1703;SDS011;849;48.780;9.216;2022-11-20T05:15:17;34.47;;;0.80;;
1703;SDS011;849;48.780;9.216;2022-11-20T05:17:49;34.57;;;0.77;;
1703;SDS011;849;48.780;9.216;2022-11-20T05:20:16;34.87;;;1.10;;
1703;SDS011;849;48.780;9.216;2022-11-20T05:22:43;34.57;;;0.80;;
1703;SDS011;849;48.780;9.216;2022-11-20T05:25:09;34.57;;;0.80;;
1703;SDS011;849;48.780;9.216;2022-11-20T05:27:35;34.77;;;0.80;;
1703;SDS011;849;48.780;9.216;2022-11-20T05:30:02;34.80;;;1.10;;
1703;SDS011;849;48.780;9.216;2022-11-20T05:32:31;34.73;;;0.80;;
1703;SDS011;849;48.780;9.216;2022-11-20T05:34:57;34.87;;;1.53;;
1703;SDS011;849;48.780;9.216;2022-11-20T05:37:22;34.67;;;0.80;;
1703;SDS011;849;48.780;9.216;2022-11-20T05:39:48;34.67;;;0.80;;
1703;SDS011;849;48.780;9.216;2022-11-20T05:42:14;34.67;;;0.80;;
1703;SDS011;849;48.780;9.216;2022-11-20T05:44:55;34.70;;;0.90;;
1703;SDS011;849;48.780;9.216;2022-11-20T05:47:22;34.27;;;0.80;;
1703;SDS011;849;48.780;9.216;2022-11-20T05:49:48;36.03;;;3.37;;
1703;SDS011;849;48.780;9.216;2022-11-20T05:52:13;34.83;;;0.80;;
1703;SDS011;849;48.780;9.216;2022-11-20T05:54:39;34.90;;;0.80;;
1703;SDS011;849;48.780;9.216;2022-11-20T05:57:04;34.77;;;0.80;;
1703;SDS011;849;48.780;9.216;2022-11-20T05:59:30;34.73;;;0.80;;
1703;SDS011;849;48.780;9.216;2022-11-20T06:01:56;34.70;;;0.80;;
1703;SDS011;849;48.780;9.216;2022-11-20T06:04:21;34.77;;;0.80;;
1703;SDS011;849;48.780;9.216;2022-11-20T06:06:47;34.70;;;0.90;;
1703;SDS011;849;48.780;9.216;2022-11-20T06:09:13;34.87;;;0.80;;
1703;SDS011;849;48.780;9.216;2022-11-20T06:11:38;34.67;;;0.80;;
1703;SDS011;849;48.780;9.216;2022-11-20T06:14:04;34.73;;;0.80;;
1703;SDS011;849;48.780;9.216;2022-11-20T06:16:30;34.70;;;1.00;;
1703;SDS011;849;48.780;9.216;2022-11-20T06:18:55;34.63;;;0.77;;
1703;SDS011;849;48.780;9.216;2022-11-20T06:21:21;34.93;;;0.80;;
1703;SDS011;849;48.780;9.216;2022-11-20T06:23:48;35.60;;;1.73;;
1703;SDS011;849;48.780;9.216;2022-11-20T06:26:16;34.73;;;0.80;;
1703;SDS011;849;48.780;9.216;2022-11-20T06:28:43;34.97;;;0.83;;
1703;SDS011;849;48.780;9.216;2022-11-20T06:31:10;34.77;;;0.80;;
1703;SDS011;849;48.780;9.216;2022-11-20T06:33:38;34.80;;;0.80;;
1703;SDS011;849;48.780;9.216;2022-11-20T06:36:04;34.90;;;1.00;;
1703;SDS011;849;48.780;9.216;2022-11-20T06:38:30;34.83;;;0.80;;
1703;SDS011;849;48.780;9.216;2022-11-20T06:40:56;34.77;;;0.80;;
1703;SDS011;849;48.780;9.216;2022-11-20T06:43:24;34.87;;;0.80;;
1703;SDS011;849;48.780;9.216;2022-11-20T06:45:53;34.77;;;0.80;;
1703;SDS011;849;48.780;9.216;2022-11-20T06:48:23;34.97;;;1.13;;
1703;SDS011;849;48.780;9.216;2022-11-20T06:50:50;34.87;;;0.70;;
1703;SDS011;849;48.780;9.216;2022-11-20T06:53:15;34.90;;;0.80;;
1703;SDS011;849;48.780;9.216;2022-11-20T06:55:42;34.87;;;0.80;;
1703;SDS011;849;48.780;9.216;2022-11-20T06:58:12;34.97;;;0.90;;
1703;SDS011;849;48.780;9.216;2022-11-20T07:00:38;35.30;;;1.40;;
1703;SDS011;849;48.780;9.216;2022-11-20T07:03:05;35.50;;;1.20;;
1703;SDS011;849;48.780;9.216;2022-11-20T07:05:32;35.03;;;0.90;;
1703;SDS011;849;48.780;9.216;2022-11-20T07:07:58;35.03;;;1.13;;
1703;SDS011;849;48.780;9.216;2022-11-20T07:10:24;35.07;;;1.00;;
1703;SDS011;849;48.780;9.216;2022-11-20T07:12:50;35.17;;;0.90;;
1703;SDS011;849;48.780;9.216;2022-11-20T07:15:17;35.30;;;1.10;;
1703;SDS011;849;48.780;9.216;2022-11-20T07:17:43;35.17;;;0.80;;
1703;SDS011;849;48.780;9.216;2022-11-20T07:20:09;35.13;;;0.90;;
1703;SDS011;849;48.780;9.216;2022-11-20T07:22:35;35.07;;;0.90;;
1703;SDS011;849;48.780;9.216;2022-11-20T07:25:01;35.03;;;0.90;;
1703;SDS011;849;48.780;9.216;2022-11-20T07:27:27;35.03;;;1.00;;
1703;SDS011;849;48.780;9.216;2022-11-20T07:29:53;34.87;;;0.80;;
1703;SDS011;849;48.780;9.216;2022-11-20T07:32:18;34.87;;;0.80;;
1703;SDS011;849;48.780;9.216;2022-11-20T07:34:44;35.03;;;0.80;;
1703;SDS011;849;48.780;9.216;2022-11-20T07:37:10;34.97;;;0.80;;
1703;SDS011;849;48.780;9.216;2022-11-20T07:39:36;34.87;;;0.80;;
1703;SDS011;849;48.780;9.216;2022-11-20T07:42:01;34.97;;;0.90;;
1703;SDS011;849;48.780;9.216;2022-11-20T07:44:27;35.13;;;1.30;;
1703;SDS011;849;48.780;9.216;2022-11-20T07:46:53;34.97;;;0.90;;
1703;SDS011;849;48.780;9.216;2022-11-20T07:49:18;34.90;;;1.00;;
1703;SDS011;849;48.780;9.216;2022-11-20T07:51:44;34.87;;;0.90;;
1703;SDS011;849;48.780;9.216;2022-11-20T07:54:09;34.87;;;0.90;;
1703;SDS011;849;48.780;9.216;2022-11-20T07:56:35;35.03;;;0.90;;
1703;SDS011;849;48.780;9.216;2022-11-20T07:59:01;34.97;;;0.80;;
1703;SDS011;849;48.780;9.216;2022-11-20T08:01:28;35.10;;;0.80;;
1703;SDS011;849;48.780;9.216;2022-11-20T08:03:54;35.10;;;0.80;;
1703;SDS011;849;48.780;9.216;2022-11-20T08:06:20;40.03;;;1.53;;
1703;SDS011;849;48.780;9.216;2022-11-20T08:08:45;35.07;;;0.80;;
1703;SDS011;849;48.780;9.216;2022-11-20T08:11:11;35.33;;;1.00;;
1703;SDS011;849;48.780;9.216;2022-11-20T08:13:55;35.17;;;0.80;;
1703;SDS011;849;48.780;9.216;2022-11-20T08:16:46;35.10;;;0.80;;
1703;SDS011;849;48.780;9.216;2022-11-20T08:19:17;35.33;;;1.13;;
1703;SDS011;849;48.780;9.216;2022-11-20T08:21:43;35.37;;;0.90;;
1703;SDS011;849;48.780;9.216;2022-11-20T08:24:09;35.40;;;0.80;;
1703;SDS011;849;48.780;9.216;2022-11-20T08:26:36;35.17;;;0.90;;
1703;SDS011;849;48.780;9.216;2022-11-20T08:29:03;35.37;;;1.17;;
1703;SDS011;849;48.780;9.216;2022-11-20T08:31:29;35.30;;;0.80;;
1703;SDS011;849;48.780;9.216;2022-11-20T08:33:55;35.37;;;0.90;;
1703;SDS011;849;48.780;9.216;2022-11-20T08:36:21;35.23;;;0.90;;
1703;SDS011;849;48.780;9.216;2022-11-20T08:38:49;35.33;;;0.90;;
1703;SDS011;849;48.780;9.216;2022-11-20T08:41:18;35.23;;;0.90;;
1703;SDS011;849;48.780;9.216;2022-11-20T08:43:52;35.17;;;0.90;;
1703;SDS011;849;48.780;9.216;2022-11-20T08:46:24;35.30;;;1.00;;
1703;SDS011;849;48.780;9.216;2022-11-20T08:48:51;35.27;;;0.90;;
1703;SDS011;849;48.780;9.216;2022-11-20T08:51:16;36.10;;;1.27;;
1703;SDS011;849;48.780;9.216;2022-11-20T08:53:43;35.37;;;0.90;;
1703;SDS011;849;48.780;9.216;2022-11-20T08:56:09;35.47;;;0.90;;
1703;SDS011;849;48.780;9.216;2022-11-20T08:58:35;35.33;;;0.80;;
1703;SDS011;849;48.780;9.216;2022-11-20T09:01:01;35.70;;;1.50;;
1703;SDS011;849;48.780;9.216;2022-11-20T09:03:27;35.40;;;0.90;;
1703;SDS011;849;48.780;9.216;2022-11-20T09:06:00;35.43;;;0.90;;
1703;SDS011;849;48.780;9.216;2022-11-20T09:08:27;35.37;;;0.80;;
1703;SDS011;849;48.780;9.216;2022-11-20T09:10:54;35.53;;;0.80;;
1703;SDS011;849;48.780;9.216;2022-11-20T09:13:21;36.30;;;1.10;;
1703;SDS011;849;48.780;9.216;2022-11-20T09:15:47;35.57;;;0.80;;
1703;SDS011;849;48.780;9.216;2022-11-20T09:18:18;35.63;;;0.80;;
1703;SDS011;849;48.780;9.216;2022-11-20T09:20:43;37.17;;;3.43;;
1703;SDS011;849;48.780;9.216;2022-11-20T09:23:09;39.77;;;1.40;;
1703;SDS011;849;48.780;9.216;2022-11-20T09:25:34;39.87;;;1.77;;
1703;SDS011;849;48.780;9.216;2022-11-20T09:28:00;40.47;;;1.70;;
1703;SDS011;849;48.780;9.216;2022-11-20T09:30:26;39.77;;;1.40;;
1703;SDS011;849;48.780;9.216;2022-11-20T09:32:52;40.00;;;1.60;;
1703;SDS011;849;48.780;9.216;2022-11-20T09:35:18;39.63;;;1.30;;
1703;SDS011;849;48.780;9.216;2022-11-20T09:37:44;40.03;;;1.40;;
1703;SDS011;849;48.780;9.216;2022-11-20T09:40:20;39.77;;;1.47;;
1703;SDS011;849;48.780;9.216;2022-11-20T09:42:57;40.23;;;1.60;;
1703;SDS011;849;48.780;9.216;2022-11-20T09:45:35;43.10;;;1.70;;
1703;SDS011;849;48.780;9.216;2022-11-20T09:51:08;40.77;;;3.70;;
1703;SDS011;849;48.780;9.216;2022-11-20T09:56:45;40.13;;;1.47;;
1703;SDS011;849;48.780;9.216;2022-11-20T10:02:08;40.83;;;1.73;;
1703;SDS011;849;48.780;9.216;2022-11-20T10:04:47;40.37;;;1.53;;
1703;SDS011;849;48.780;9.216;2022-11-20T10:22:25;40.47;;;1.50;;
1703;SDS011;849;48.780;9.216;2022-11-20T10:25:42;40.40;;;1.33;;
1703;SDS011;849;48.780;9.216;2022-11-20T10:28:11;40.53;;;1.70;;
1703;SDS011;849;48.780;9.216;2022-11-20T10:30:40;40.63;;;1.40;;
1703;SDS011;849;48.780;9.216;2022-11-20T10:33:26;40.33;;;1.40;;
1703;SDS011;849;48.780;9.216;2022-11-20T10:36:03;40.13;;;1.50;;
1703;SDS011;849;48.780;9.216;2022-11-20T10:38:43;40.53;;;1.53;;
1703;SDS011;849;48.780;9.216;2022-11-20T10:41:30;40.47;;;1.60;;
1703;SDS011;849;48.780;9.216;2022-11-20T10:44:04;40.37;;;1.60;;
1703;SDS011;849;48.780;9.216;2022-11-20T10:46:41;40.37;;;1.50;;
1703;SDS011;849;48.780;9.216;2022-11-20T10:49:15;40.43;;;1.50;;
1703;SDS011;849;48.780;9.216;2022-11-20T11:00:21;39.67;;;1.70;;
1703;SDS011;849;48.780;9.216;2022-11-20T11:02:48;39.67;;;2.17;;
1703;SDS011;849;48.780;9.216;2022-11-20T11:08:02;39.03;;;1.40;;
1703;SDS011;849;48.780;9.216;2022-11-20T11:13:23;38.57;;;1.30;;
1703;SDS011;849;48.780;9.216;2022-11-20T11:15:53;38.83;;;1.27;;
1703;SDS011;849;48.780;9.216;2022-11-20T11:18:37;38.77;;;1.20;;
1703;SDS011;849;48.780;9.216;2022-11-20T11:21:04;38.57;;;1.30;;
1703;SDS011;849;48.780;9.216;2022-11-20T11:23:38;38.67;;;1.30;;
1703;SDS011;849;48.780;9.216;2022-11-20T11:26:06;38.53;;;1.20;;
1703;SDS011;849;48.780;9.216;2022-11-20T11:28:52;39.27;;;1.30;;
1703;SDS011;849;48.780;9.216;2022-11-20T11:31:30;39.33;;;1.40;;
1703;SDS011;849;48.780;9.216;2022-11-20T11:34:07;39.13;;;1.20;;
1703;SDS011;849;48.780;9.216;2022-11-20T11:36:37;39.17;;;1.20;;
1703;SDS011;849;48.780;9.216;2022-11-20T11:39:05;38.97;;;1.30;;
1703;SDS011;849;48.780;9.216;2022-11-20T11:41:35;38.83;;;1.30;;
1703;SDS011;849;48.780;9.216;2022-11-20T11:44:18;39.17;;;1.30;;
1703;SDS011;849;48.780;9.216;2022-11-20T11:47:03;39.43;;;1.70;;
1703;SDS011;849;48.780;9.216;2022-11-20T11:49:34;39.37;;;1.30;;
1703;SDS011;849;48.780;9.216;2022-11-20T11:52:13;39.13;;;1.30;;
1703;SDS011;849;48.780;9.216;2022-11-20T11:54:45;39.03;;;1.20;;
1703;SDS011;849;48.780;9.216;2022-11-20T12:00:05;39.23;;;1.40;;
1703;SDS011;849;48.780;9.216;2022-11-20T12:05:21;39.67;;;1.97;;
1703;SDS011;849;48.780;9.216;2022-11-20T12:07:57;39.70;;;1.30;;
1703;SDS011;849;48.780;9.216;2022-11-20T12:12:54;40.47;;;1.40;;
1703;SDS011;849;48.780;9.216;2022-11-20T12:15:28;40.37;;;1.33;;
1703;SDS011;849;48.780;9.216;2022-11-20T12:17:55;40.67;;;1.70;;
1703;SDS011;849;48.780;9.216;2022-11-20T12:20:22;40.43;;;1.40;;
1703;SDS011;849;48.780;9.216;2022-11-20T12:25:27;40.50;;;1.47;;
1703;SDS011;849;48.780;9.216;2022-11-20T12:30:33;40.57;;;1.40;;
1703;SDS011;849;48.780;9.216;2022-11-20T12:43:57;40.90;;;1.60;;
1703;SDS011;849;48.780;9.216;2022-11-20T12:46:51;41.27;;;1.90;;
1703;SDS011;849;48.780;9.216;2022-11-20T12:55:15;42.30;;;1.80;;
1703;SDS011;849;48.780;9.216;2022-11-20T13:06:44;29.37;;;2.30;;
1703;SDS011;849;48.780;9.216;2022-11-20T13:09:11;14.67;;;0.40;;
1703;SDS011;849;48.780;9.216;2022-11-20T13:11:41;14.87;;;0.60;;
1703;SDS011;849;48.780;9.216;2022-11-20T13:17:05;15.43;;;0.47;;
1703;SDS011;849;48.780;9.216;2022-11-20T13:19:31;14.17;;;0.50;;
1703;SDS011;849;48.780;9.216;2022-11-20T13:21:58;14.43;;;0.63;;
1703;SDS011;849;48.780;9.216;2022-11-20T13:24:25;14.80;;;0.60;;
1703;SDS011;849;48.780;9.216;2022-11-20T13:27:02;14.20;;;0.40;;
1703;SDS011;849;48.780;9.216;2022-11-20T13:29:37;11.57;;;0.73;;
1703;SDS011;849;48.780;9.216;2022-11-20T13:32:15;11.07;;;0.40;;
1703;SDS011;849;48.780;9.216;2022-11-20T13:34:52;11.07;;;0.33;;
1703;SDS011;849;48.780;9.216;2022-11-20T13:37:32;12.77;;;0.40;;
1703;SDS011;849;48.780;9.216;2022-11-20T13:42:37;12.70;;;0.40;;
1703;SDS011;849;48.780;9.216;2022-11-20T13:47:51;10.93;;;0.40;;
1703;SDS011;849;48.780;9.216;2022-11-20T13:50:18;11.93;;;0.50;;
1703;SDS011;849;48.780;9.216;2022-11-20T13:52:54;12.20;;;0.40;;
1703;SDS011;849;48.780;9.216;2022-11-20T13:55:53;12.53;;;0.40;;
1703;SDS011;849;48.780;9.216;2022-11-20T14:01:19;14.07;;;1.83;;
1703;SDS011;849;48.780;9.216;2022-11-20T14:03:46;12.87;;;0.50;;
1703;SDS011;849;48.780;9.216;2022-11-20T14:06:32;12.27;;;0.40;;
1703;SDS011;849;48.780;9.216;2022-11-20T14:09:03;12.73;;;0.73;;
1703;SDS011;849;48.780;9.216;2022-11-20T14:11:30;12.83;;;0.50;;
1703;SDS011;849;48.780;9.216;2022-11-20T14:14:03;13.37;;;0.40;;
1703;SDS011;849;48.780;9.216;2022-11-20T14:16:38;13.47;;;0.40;;
1703;SDS011;849;48.780;9.216;2022-11-20T14:21:45;13.73;;;0.50;;
1703;SDS011;849;48.780;9.216;2022-11-20T14:24:12;14.23;;;0.50;;
1703;SDS011;849;48.780;9.216;2022-11-20T14:26:42;14.27;;;0.40;;
1703;SDS011;849;48.780;9.216;2022-11-20T14:29:16;14.23;;;0.40;;
1703;SDS011;849;48.780;9.216;2022-11-20T14:31:47;14.17;;;0.50;;
1703;SDS011;849;48.780;9.216;2022-11-20T14:34:20;14.27;;;0.40;;
1703;SDS011;849;48.780;9.216;2022-11-20T14:36:48;14.50;;;0.40;;
1703;SDS011;849;48.780;9.216;2022-11-20T14:39:20;14.63;;;0.40;;
1703;SDS011;849;48.780;9.216;2022-11-20T14:41:50;14.93;;;0.40;;
1703;SDS011;849;48.780;9.216;2022-11-20T14:44:17;15.17;;;0.60;;
1703;SDS011;849;48.780;9.216;2022-11-20T14:46:52;14.93;;;0.50;;
1703;SDS011;849;48.780;9.216;2022-11-20T14:49:18;14.90;;;0.40;;
1703;SDS011;849;48.780;9.216;2022-11-20T14:51:44;14.77;;;0.40;;
1703;SDS011;849;48.780;9.216;2022-11-20T14:54:20;14.67;;;0.40;;
1703;SDS011;849;48.780;9.216;2022-11-20T14:56:54;14.87;;;0.40;;
1703;SDS011;849;48.780;9.216;2022-11-20T14:59:29;14.93;;;0.40;;
1703;SDS011;849;48.780;9.216;2022-11-20T15:01:56;14.97;;;0.40;;
1703;SDS011;849;48.780;9.216;2022-11-20T15:04:24;14.93;;;0.40;;
1703;SDS011;849;48.780;9.216;2022-11-20T15:06:51;15.00;;;0.40;;
1703;SDS011;849;48.780;9.216;2022-11-20T15:09:21;15.03;;;0.40;;
1703;SDS011;849;48.780;9.216;2022-11-20T15:11:57;14.93;;;0.40;;
1703;SDS011;849;48.780;9.216;2022-11-20T15:14:25;15.13;;;0.40;;
1703;SDS011;849;48.780;9.216;2022-11-20T15:16:52;15.17;;;0.40;;
1703;SDS011;849;48.780;9.216;2022-11-20T15:19:19;15.13;;;0.40;;
1703;SDS011;849;48.780;9.216;2022-11-20T15:21:47;15.23;;;0.40;;
1703;SDS011;849;48.780;9.216;2022-11-20T15:24:13;15.13;;;0.40;;
1703;SDS011;849;48.780;9.216;2022-11-20T15:26:39;15.10;;;0.40;;
1703;SDS011;849;48.780;9.216;2022-11-20T15:29:07;18.00;;;1.53;;
1703;SDS011;849;48.780;9.216;2022-11-20T15:31:35;15.47;;;0.80;;
1703;SDS011;849;48.780;9.216;2022-11-20T15:34:02;15.43;;;0.40;;
1703;SDS011;849;48.780;9.216;2022-11-20T15:36:31;17.67;;;2.50;;
1703;SDS011;849;48.780;9.216;2022-11-20T15:38:56;16.30;;;1.20;;
1703;SDS011;849;48.780;9.216;2022-11-20T15:41:22;15.37;;;0.40;;
1703;SDS011;849;48.780;9.216;2022-11-20T15:43:48;15.57;;;0.50;;
1703;SDS011;849;48.780;9.216;2022-11-20T15:46:15;15.60;;;0.40;;
1703;SDS011;849;48.780;9.216;2022-11-20T15:48:53;15.57;;;0.40;;
1703;SDS011;849;48.780;9.216;2022-11-20T15:51:27;15.60;;;0.40;;
1703;SDS011;849;48.780;9.216;2022-11-20T15:53:56;15.53;;;0.40;;
1703;SDS011;849;48.780;9.216;2022-11-20T15:56:22;15.57;;;0.40;;
1703;SDS011;849;48.780;9.216;2022-11-20T15:58:48;15.67;;;0.40;;
1703;SDS011;849;48.780;9.216;2022-11-20T16:01:15;15.67;;;0.40;;
1703;SDS011;849;48.780;9.216;2022-11-20T16:03:45;21.23;;;15.40;;
1703;SDS011;849;48.780;9.216;2022-11-20T16:06:11;15.90;;;0.40;;
1703;SDS011;849;48.780;9.216;2022-11-20T16:08:37;15.93;;;0.40;;
1703;SDS011;849;48.780;9.216;2022-11-20T16:11:03;15.97;;;0.40;;
1703;SDS011;849;48.780;9.216;2022-11-20T16:13:30;16.03;;;0.40;;
1703;SDS011;849;48.780;9.216;2022-11-20T16:16:22;16.07;;;0.40;;
1703;SDS011;849;48.780;9.216;2022-11-20T16:18:50;16.00;;;0.40;;
1703;SDS011;849;48.780;9.216;2022-11-20T16:21:16;16.07;;;0.40;;
1703;SDS011;849;48.780;9.216;2022-11-20T16:23:42;16.07;;;0.40;;
1703;SDS011;849;48.780;9.216;2022-11-20T16:26:11;16.03;;;0.40;;
1703;SDS011;849;48.780;9.216;2022-11-20T16:28:42;16.00;;;0.40;;
1703;SDS011;849;48.780;9.216;2022-11-20T16:31:11;16.13;;;0.40;;
1703;SDS011;849;48.780;9.216;2022-11-20T16:33:38;16.07;;;0.40;;
1703;SDS011;849;48.780;9.216;2022-11-20T16:36:08;16.03;;;0.40;;
1703;SDS011;849;48.780;9.216;2022-11-20T16:38:35;16.10;;;0.40;;
1703;SDS011;849;48.780;9.216;2022-11-20T16:41:01;16.10;;;0.40;;
1703;SDS011;849;48.780;9.216;2022-11-20T16:43:27;16.10;;;0.40;;
1703;SDS011;849;48.780;9.216;2022-11-20T16:45:53;16.17;;;0.40;;
1703;SDS011;849;48.780;9.216;2022-11-20T16:48:19;16.17;;;0.50;;
1703;SDS011;849;48.780;9.216;2022-11-20T16:50:48;16.07;;;0.50;;
1703;SDS011;849;48.780;9.216;2022-11-20T16:53:19;16.17;;;0.40;;
1703;SDS011;849;48.780;9.216;2022-11-20T16:55:46;16.17;;;0.40;;
1703;SDS011;849;48.780;9.216;2022-11-20T16:58:12;16.10;;;0.40;;
1703;SDS011;849;48.780;9.216;2022-11-20T17:00:39;16.13;;;0.40;;
1703;SDS011;849;48.780;9.216;2022-11-20T17:03:05;16.03;;;0.40;;
1703;SDS011;849;48.780;9.216;2022-11-20T17:05:32;16.07;;;0.40;;
1703;SDS011;849;48.780;9.216;2022-11-20T17:07:58;16.17;;;0.40;;
1703;SDS011;849;48.780;9.216;2022-11-20T17:10:24;16.27;;;0.90;;